Time,TemperatureF,DewpointF,PressureIn,WindDirection,WindDirectionDegrees,WindSpeedMPH,WindSpeedGustMPH,Humidity,HourlyPrecipIn,Conditions,Clouds,dailyrainin,SolarRadiationWatts/m^2,SoftwareType,DateUTC
2014-11-27 01:09:00,-9.7,-14.4,30.71,NW,315,0.0,2.0,79,0.00,,,0.00,0,Wunderground v.1.15,2014-11-27 07:09:00,
2014-11-27 01:19:00,-9.9,-14.6,30.70,NW,316,0.0,0.0,79,0.00,,,0.00,0,Wunderground v.1.15,2014-11-27 07:19:00,
2014-11-27 03:39:00,-11.3,-16.0,30.70,NW,315,0.0,0.0,79,0.00,,,0.00,0,Wunderground v.1.15,2014-11-27 09:39:00,
2014-11-27 03:49:00,-11.4,-16.1,30.69,NW,316,0.0,0.0,79,0.00,,,0.00,0,Wunderground v.1.15,2014-11-27 09:49:00,
2014-11-27 06:00:00,-11.8,-16.2,30.64,NW,315,0.0,0.0,80,0.00,,,0.00,0,Wunderground v.1.15,2014-11-27 12:00:00,
2014-11-27 06:09:00,-11.9,-16.3,30.65,NW,315,0.0,0.0,80,0.00,,,0.00,0,Wunderground v.1.15,2014-11-27 12:09:00,
2014-11-27 06:19:00,-12.0,-16.4,30.65,NW,315,0.0,0.0,80,0.00,,,0.00,0,Wunderground v.1.15,2014-11-27 12:19:00,
2014-11-27 07:00:00,-11.9,-16.3,30.64,NW,315,0.0,0.0,80,0.00,,,0.00,0,Wunderground v.1.15,2014-11-27 13:00:00,
2014-11-27 07:09:00,-11.8,-16.2,30.64,NW,316,0.0,0.0,80,0.00,,,0.00,0,Wunderground v.1.15,2014-11-27 13:09:00,
2014-11-27 07:19:00,-11.8,-16.2,30.63,SSW,202,1.0,2.0,80,0.00,,,0.00,0,Wunderground v.1.15,2014-11-27 13:19:00,
2014-11-27 07:30:00,-12.1,-16.5,30.63,SSW,194,1.0,1.0,80,0.00,,,0.00,0,Wunderground v.1.15,2014-11-27 13:30:00,
2014-11-27 07:39:00,-12.3,-16.7,30.62,SSW,194,0.0,3.0,80,0.00,,,0.00,0,Wunderground v.1.15,2014-11-27 13:39:00,
2014-11-27 07:49:00,-12.4,-16.8,30.62,SSW,194,0.0,1.0,80,0.00,,,0.00,0,Wunderground v.1.15,2014-11-27 13:49:00,
2014-11-27 08:00:00,-12.4,-14.1,30.63,SSW,194,0.0,1.0,92,0.00,,,0.00,0,Wunderground v.1.15,2014-11-27 14:00:00,
2014-11-27 08:09:00,-12.1,-16.5,30.62,SSW,194,0.0,1.0,80,0.00,,,0.00,9,Wunderground v.1.15,2014-11-27 14:09:00,
2014-11-27 08:19:00,-11.9,-16.3,30.62,SSW,194,0.0,0.0,80,0.00,,,0.00,14,Wunderground v.1.15,2014-11-27 14:19:00,
2014-11-27 08:30:00,-11.6,-16.0,30.61,South,175,2.0,2.0,80,0.00,,,0.00,19,Wunderground v.1.15,2014-11-27 14:30:00,
2014-11-27 09:00:00,-11.0,-15.5,30.60,South,173,1.0,1.0,80,0.00,,,0.00,37,Wunderground v.1.15,2014-11-27 15:00:00,
2014-11-27 09:09:00,-10.5,-15.0,30.61,South,173,1.0,1.0,80,0.00,,,0.00,151,Wunderground v.1.15,2014-11-27 15:09:00,
2014-11-27 09:19:00,-10.0,-14.2,30.60,South,175,1.0,2.0,81,0.00,,,0.00,132,Wunderground v.1.15,2014-11-27 15:19:00,
2014-11-27 09:30:00,-9.2,-13.4,30.60,South,175,1.0,1.0,81,0.00,,,0.00,90,Wunderground v.1.15,2014-11-27 15:30:00,
2014-11-27 09:49:00,-7.4,-11.4,30.58,South,175,2.0,2.0,82,0.00,,,0.00,53,Wunderground v.1.15,2014-11-27 15:49:00,
2014-11-27 10:00:00,-6.2,-10.3,30.58,South,175,1.0,3.0,82,0.00,,,0.00,130,Wunderground v.1.15,2014-11-27 16:00:00,
2014-11-27 10:09:00,-5.4,-9.7,30.58,South,175,2.0,2.0,81,0.00,,,0.00,141,Wunderground v.1.15,2014-11-27 16:09:00,
2014-11-27 12:00:00,3.3,-3.7,30.53,South,186,4.0,4.0,72,0.00,,,0.00,378,Wunderground v.1.15,2014-11-27 18:00:00,
2014-11-27 12:09:00,4.0,-3.3,30.52,SSW,200,4.0,4.0,71,0.00,,,0.00,334,Wunderground v.1.15,2014-11-27 18:09:00,
2014-11-27 12:19:00,4.5,-2.8,30.51,South,190,3.0,3.0,71,0.00,,,0.00,327,Wunderground v.1.15,2014-11-27 18:19:00,
2014-11-27 12:30:00,4.6,-2.4,30.50,SSE,167,3.0,3.0,72,0.00,,,0.00,248,Wunderground v.1.15,2014-11-27 18:30:00,
2014-11-27 12:39:00,4.3,-2.7,30.50,South,174,4.0,6.0,72,0.00,,,0.00,190,Wunderground v.1.15,2014-11-27 18:39:00,
2014-11-27 12:49:00,4.2,-2.5,30.50,SSE,153,5.0,5.0,73,0.00,,,0.00,237,Wunderground v.1.15,2014-11-27 18:49:00,
2014-11-27 13:00:00,4.2,-2.5,30.50,SSE,168,5.0,5.0,73,0.00,,,0.00,149,Wunderground v.1.15,2014-11-27 19:00:00,
2014-11-27 13:09:00,4.1,-2.4,30.49,SE,142,4.0,4.0,74,0.00,,,0.00,149,Wunderground v.1.15,2014-11-27 19:09:00,
2014-11-27 13:19:00,4.2,-2.3,30.48,SSE,163,4.0,4.0,74,0.00,,,0.00,134,Wunderground v.1.15,2014-11-27 19:19:00,
2014-11-27 13:39:00,4.9,-1.3,30.47,South,176,4.0,4.0,75,0.00,,,0.00,125,Wunderground v.1.15,2014-11-27 19:39:00,
2014-11-27 13:49:00,5.1,-1.1,30.47,South,191,3.0,5.0,75,0.00,,,0.00,132,Wunderground v.1.15,2014-11-27 19:49:00,
2014-11-27 14:39:00,5.8,-0.4,30.46,South,183,4.0,11.0,75,0.00,,,0.00,81,Wunderground v.1.15,2014-11-27 20:39:00,
2014-11-27 14:49:00,5.7,-0.5,30.45,SSE,168,4.0,6.0,75,0.00,,,0.00,79,Wunderground v.1.15,2014-11-27 20:49:00,
2014-11-27 15:00:00,5.8,-0.4,30.45,SSE,159,4.0,4.0,75,0.00,,,0.00,74,Wunderground v.1.15,2014-11-27 21:00:00,
2014-11-27 15:09:00,5.9,-0.3,30.45,SSE,159,3.0,4.0,75,0.00,,,0.00,63,Wunderground v.1.15,2014-11-27 21:09:00,
2014-11-27 15:19:00,5.8,-0.4,30.44,SSE,164,4.0,4.0,75,0.00,,,0.00,56,Wunderground v.1.15,2014-11-27 21:19:00,
2014-11-27 16:49:00,6.0,0.1,30.40,SSE,168,2.0,9.0,76,0.00,,,0.00,0,Wunderground v.1.15,2014-11-27 22:49:00,
2014-11-27 17:00:00,5.8,-0.1,30.40,SE,144,3.0,4.0,76,0.00,,,0.00,0,Wunderground v.1.15,2014-11-27 23:00:00,
2014-11-27 17:09:00,5.7,-0.2,30.40,SE,140,3.0,5.0,76,0.00,,,0.00,0,Wunderground v.1.15,2014-11-27 23:09:00,
2014-11-27 17:19:00,5.7,-0.2,30.40,South,190,4.0,4.0,76,0.00,,,0.00,0,Wunderground v.1.15,2014-11-27 23:19:00,
2014-11-27 17:30:00,5.7,-0.2,30.40,SSE,148,3.0,4.0,76,0.00,,,0.00,0,Wunderground v.1.15,2014-11-27 23:30:00,
2014-11-27 17:39:00,5.7,-0.2,30.40,South,179,4.0,4.0,76,0.00,,,0.00,0,Wunderground v.1.15,2014-11-27 23:39:00,
2014-11-27 17:49:00,5.6,-0.3,30.39,SSE,155,2.0,2.0,76,0.00,,,0.00,0,Wunderground v.1.15,2014-11-27 23:49:00,
2014-11-27 18:00:00,5.5,-0.4,30.38,SSE,161,3.0,3.0,76,0.00,,,0.00,0,Wunderground v.1.15,2014-11-28 00:00:00,
2014-11-27 18:09:00,5.4,-0.8,30.38,South,186,3.0,3.0,75,0.00,,,0.00,0,Wunderground v.1.15,2014-11-28 00:09:00,